sensor_id;sensor_type;location;lat;lon;timestamp;pressure;altitude;pressure_sealevel;temperature
76381;BMP280;65202;52.520;10.528;2023-02-28T00:01:28;102664.31;;;0.36
76381;BMP280;65202;52.520;10.528;2023-02-28T00:03:56;102672.25;;;0.12
76381;BMP280;65202;52.520;10.528;2023-02-28T00:06:24;102674.38;;;0.23
76381;BMP280;65202;52.520;10.528;2023-02-28T00:08:51;102671.22;;;0.10
76381;BMP280;65202;52.520;10.528;2023-02-28T00:11:19;102667.84;;;0.38
76381;BMP280;65202;52.520;10.528;2023-02-28T00:13:46;102665.72;;;0.41
76381;BMP280;65202;52.520;10.528;2023-02-28T00:16:18;102659.69;;;0.66
76381;BMP280;65202;52.520;10.528;2023-02-28T00:18:48;102661.88;;;0.15
76381;BMP280;65202;52.520;10.528;2023-02-28T00:21:17;102659.75;;;0.32
76381;BMP280;65202;52.520;10.528;2023-02-28T00:23:45;102659.91;;;0.40
76381;BMP280;65202;52.520;10.528;2023-02-28T00:26:13;102653.59;;;0.35
76381;BMP280;65202;52.520;10.528;2023-02-28T00:28:40;102667.34;;;0.26
76381;BMP280;65202;52.520;10.528;2023-02-28T00:31:07;102661.88;;;0.15
76381;BMP280;65202;52.520;10.528;2023-02-28T00:33:35;102660.84;;;-0.22
76381;BMP280;65202;52.520;10.528;2023-02-28T00:36:07;102662.94;;;-0.32
76381;BMP280;65202;52.520;10.528;2023-02-28T00:38:37;102663.06;;;-0.65
76381;BMP280;65202;52.520;10.528;2023-02-28T00:41:06;102652.59;;;-0.08
76381;BMP280;65202;52.520;10.528;2023-02-28T00:43:35;102665.06;;;-0.35
76381;BMP280;65202;52.520;10.528;2023-02-28T00:46:04;102658.38;;;0.06
76381;BMP280;65202;52.520;10.528;2023-02-28T00:48:32;102661.88;;;0.01
76381;BMP280;65202;52.520;10.528;2023-02-28T00:51:00;102667.88;;;-0.11
76381;BMP280;65202;52.520;10.528;2023-02-28T00:53:28;102673.53;;;-0.05
76381;BMP280;65202;52.520;10.528;2023-02-28T00:55:55;102672.44;;;-0.28
76381;BMP280;65202;52.520;10.528;2023-02-28T00:58:22;102663.63;;;0.16
76381;BMP280;65202;52.520;10.528;2023-02-28T01:00:51;102671.06;;;-0.05
76381;BMP280;65202;52.520;10.528;2023-02-28T01:03:20;102666.06;;;-0.47
76381;BMP280;65202;52.520;10.528;2023-02-28T01:05:49;102661.84;;;-0.48
76381;BMP280;65202;52.520;10.528;2023-02-28T01:08:17;102667.69;;;-0.26
76381;BMP280;65202;52.520;10.528;2023-02-28T01:10:44;102670.94;;;-0.74
76381;BMP280;65202;52.520;10.528;2023-02-28T01:13:12;102668.44;;;-0.88
76381;BMP280;65202;52.520;10.528;2023-02-28T01:15:51;102656.94;;;-0.55
76381;BMP280;65202;52.520;10.528;2023-02-28T01:18:21;102659.78;;;-0.10
76381;BMP280;65202;52.520;10.528;2023-02-28T01:20:49;102663.13;;;-0.37
76381;BMP280;65202;52.520;10.528;2023-02-28T01:23:19;102674.03;;;-0.14
76381;BMP280;65202;52.520;10.528;2023-02-28T01:25:51;102666.09;;;-0.19
76381;BMP280;65202;52.520;10.528;2023-02-28T01:28:19;102674.16;;;-0.55
76381;BMP280;65202;52.520;10.528;2023-02-28T01:30:48;102667.66;;;-0.40
76381;BMP280;65202;52.520;10.528;2023-02-28T01:33:16;102666.03;;;-0.74
76381;BMP280;65202;52.520;10.528;2023-02-28T01:35:44;102662.91;;;-0.46
76381;BMP280;65202;52.520;10.528;2023-02-28T01:38:11;102660.75;;;-0.77
76381;BMP280;65202;52.520;10.528;2023-02-28T01:40:48;102676.06;;;-0.66
76381;BMP280;65202;52.520;10.528;2023-02-28T01:43:31;102655.91;;;-0.36
76381;BMP280;65202;52.520;10.528;2023-02-28T01:46:12;102667.31;;;0.12
76381;BMP280;65202;52.520;10.528;2023-02-28T01:48:42;102658.72;;;-0.40
76381;BMP280;65202;52.520;10.528;2023-02-28T01:51:18;102660.13;;;-0.07
76381;BMP280;65202;52.520;10.528;2023-02-28T01:53:51;102668.31;;;-1.23
76381;BMP280;65202;52.520;10.528;2023-02-28T01:56:26;102665.84;;;-0.76
76381;BMP280;65202;52.520;10.528;2023-02-28T01:58:57;102657.97;;;-0.53
76381;BMP280;65202;52.520;10.528;2023-02-28T02:01:26;102658.78;;;-0.87
76381;BMP280;65202;52.520;10.528;2023-02-28T02:03:57;102659.72;;;-0.72
76381;BMP280;65202;52.520;10.528;2023-02-28T02:06:34;102660.81;;;-1.11
76381;BMP280;65202;52.520;10.528;2023-02-28T02:09:05;102653.69;;;-0.88
76381;BMP280;65202;52.520;10.528;2023-02-28T02:11:33;102653.78;;;-1.48
76381;BMP280;65202;52.520;10.528;2023-02-28T02:17:16;102645.00;;;-0.38
76381;BMP280;65202;52.520;10.528;2023-02-28T02:20:26;102640.06;;;-0.24
76381;BMP280;65202;52.520;10.528;2023-02-28T02:23:37;102645.34;;;-0.42
76381;BMP280;65202;52.520;10.528;2023-02-28T02:26:36;102637.25;;;-1.16
76381;BMP280;65202;52.520;10.528;2023-02-28T02:32:28;102633.88;;;-0.69
76381;BMP280;65202;52.520;10.528;2023-02-28T02:35:40;102642.81;;;-0.76
76381;BMP280;65202;52.520;10.528;2023-02-28T02:38:34;102643.41;;;-1.12
76381;BMP280;65202;52.520;10.528;2023-02-28T02:44:15;102640.69;;;-1.41
76381;BMP280;65202;52.520;10.528;2023-02-28T02:46:51;102658.16;;;-1.79
76381;BMP280;65202;52.520;10.528;2023-02-28T02:49:36;102650.50;;;-1.68
76381;BMP280;65202;52.520;10.528;2023-02-28T02:52:08;102658.63;;;-1.28
76381;BMP280;65202;52.520;10.528;2023-02-28T02:54:45;102645.75;;;-1.40
76381;BMP280;65202;52.520;10.528;2023-02-28T02:57:19;102651.63;;;-1.59
76381;BMP280;65202;52.520;10.528;2023-02-28T02:59:51;102657.31;;;-1.46
76381;BMP280;65202;52.520;10.528;2023-02-28T03:02:22;102658.59;;;-1.62
76381;BMP280;65202;52.520;10.528;2023-02-28T03:04:58;102646.91;;;-1.10
76381;BMP280;65202;52.520;10.528;2023-02-28T03:07:27;102655.09;;;-1.64
76381;BMP280;65202;52.520;10.528;2023-02-28T03:09:56;102665.84;;;-1.83
76381;BMP280;65202;52.520;10.528;2023-02-28T03:12:33;102643.75;;;-1.49
76381;BMP280;65202;52.520;10.528;2023-02-28T03:15:19;102662.88;;;-1.54
76381;BMP280;65202;52.520;10.528;2023-02-28T03:18:16;102654.88;;;-1.65
76381;BMP280;65202;52.520;10.528;2023-02-28T03:21:36;102659.53;;;-1.81
76381;BMP280;65202;52.520;10.528;2023-02-28T03:24:19;102660.72;;;-1.65
76381;BMP280;65202;52.520;10.528;2023-02-28T03:27:21;102658.44;;;-1.63
76381;BMP280;65202;52.520;10.528;2023-02-28T03:32:58;102662.06;;;-1.93
76381;BMP280;65202;52.520;10.528;2023-02-28T03:35:39;102654.09;;;-1.59
76381;BMP280;65202;52.520;10.528;2023-02-28T03:38:22;102663.69;;;-1.87
76381;BMP280;65202;52.520;10.528;2023-02-28T03:41:00;102662.16;;;-1.53
76381;BMP280;65202;52.520;10.528;2023-02-28T03:43:35;102653.19;;;-1.26
76381;BMP280;65202;52.520;10.528;2023-02-28T03:46:10;102660.78;;;-1.77
76381;BMP280;65202;52.520;10.528;2023-02-28T03:48:49;102657.25;;;-1.53
76381;BMP280;65202;52.520;10.528;2023-02-28T03:51:23;102656.47;;;-1.73
76381;BMP280;65202;52.520;10.528;2023-02-28T03:53:56;102657.00;;;-1.68
76381;BMP280;65202;52.520;10.528;2023-02-28T03:56:40;102664.00;;;-1.97
76381;BMP280;65202;52.520;10.528;2023-02-28T03:59:22;102663.81;;;-1.99
76381;BMP280;65202;52.520;10.528;2023-02-28T04:02:07;102664.50;;;-1.74
76381;BMP280;65202;52.520;10.528;2023-02-28T04:04:34;102671.13;;;-1.80
76381;BMP280;65202;52.520;10.528;2023-02-28T04:07:06;102670.63;;;-1.77
76381;BMP280;65202;52.520;10.528;2023-02-28T04:09:34;102668.72;;;-1.73
76381;BMP280;65202;52.520;10.528;2023-02-28T04:12:02;102659.03;;;-1.52
76381;BMP280;65202;52.520;10.528;2023-02-28T04:14:29;102669.44;;;-1.67
76381;BMP280;65202;52.520;10.528;2023-02-28T04:16:56;102670.13;;;-1.68
76381;BMP280;65202;52.520;10.528;2023-02-28T04:19:24;102668.25;;;-1.89
76381;BMP280;65202;52.520;10.528;2023-02-28T04:21:52;102665.28;;;-1.61
76381;BMP280;65202;52.520;10.528;2023-02-28T04:24:23;102676.19;;;-2.04
76381;BMP280;65202;52.520;10.528;2023-02-28T04:26:54;102673.81;;;-1.97
76381;BMP280;65202;52.520;10.528;2023-02-28T04:29:25;102680.06;;;-2.06
76381;BMP280;65202;52.520;10.528;2023-02-28T04:31:55;102673.00;;;-1.84
76381;BMP280;65202;52.520;10.528;2023-02-28T04:34:28;102666.09;;;-1.41
76381;BMP280;65202;52.520;10.528;2023-02-28T04:36:57;102664.47;;;-1.21
76381;BMP280;65202;52.520;10.528;2023-02-28T04:39:39;102671.09;;;-1.27
76381;BMP280;65202;52.520;10.528;2023-02-28T04:42:08;102677.75;;;-1.59
76381;BMP280;65202;52.520;10.528;2023-02-28T04:44:36;102664.47;;;-1.21
76381;BMP280;65202;52.520;10.528;2023-02-28T04:47:03;102667.72;;;-1.01
76381;BMP280;65202;52.520;10.528;2023-02-28T04:49:30;102672.56;;;-1.15
76381;BMP280;65202;52.520;10.528;2023-02-28T04:51:58;102669.81;;;-0.97
76381;BMP280;65202;52.520;10.528;2023-02-28T04:54:26;102668.75;;;-0.99
76381;BMP280;65202;52.520;10.528;2023-02-28T04:56:53;102664.78;;;-1.25
76381;BMP280;65202;52.520;10.528;2023-02-28T04:59:21;102670.88;;;-0.95
76381;BMP280;65202;52.520;10.528;2023-02-28T05:01:49;102670.69;;;-1.04
76381;BMP280;65202;52.520;10.528;2023-02-28T05:04:16;102664.78;;;-1.25
76381;BMP280;65202;52.520;10.528;2023-02-28T05:06:44;102666.88;;;-1.28
76381;BMP280;65202;52.520;10.528;2023-02-28T05:09:12;102665.09;;;-1.36
76381;BMP280;65202;52.520;10.528;2023-02-28T05:11:40;102657.84;;;-1.08
76381;BMP280;65202;52.520;10.528;2023-02-28T05:14:13;102664.59;;;-0.86
76381;BMP280;65202;52.520;10.528;2023-02-28T05:16:41;102672.25;;;-1.04
76381;BMP280;65202;52.520;10.528;2023-02-28T05:19:09;102666.06;;;-1.15
76381;BMP280;65202;52.520;10.528;2023-02-28T05:21:55;102667.16;;;-1.06
76381;BMP280;65202;52.520;10.528;2023-02-28T05:24:22;102668.59;;;-1.34
76381;BMP280;65202;52.520;10.528;2023-02-28T05:26:52;102679.78;;;-1.43
76381;BMP280;65202;52.520;10.528;2023-02-28T05:29:21;102679.44;;;-1.91
76381;BMP280;65202;52.520;10.528;2023-02-28T05:31:49;102677.41;;;-1.82
76381;BMP280;65202;52.520;10.528;2023-02-28T05:34:17;102680.09;;;-1.99
76381;BMP280;65202;52.520;10.528;2023-02-28T05:36:44;102685.00;;;-1.80
76381;BMP280;65202;52.520;10.528;2023-02-28T05:39:11;102687.28;;;-2.01
76381;BMP280;65202;52.520;10.528;2023-02-28T05:41:43;102683.25;;;-1.48
76381;BMP280;65202;52.520;10.528;2023-02-28T05:44:11;102685.75;;;-1.41
76381;BMP280;65202;52.520;10.528;2023-02-28T05:46:39;102690.00;;;-1.66
76381;BMP280;65202;52.520;10.528;2023-02-28T05:49:06;102685.75;;;-1.41
76381;BMP280;65202;52.520;10.528;2023-02-28T05:51:33;102684.84;;;-1.48
76381;BMP280;65202;52.520;10.528;2023-02-28T05:54:06;102691.75;;;-2.11
76381;BMP280;65202;52.520;10.528;2023-02-28T05:56:33;102702.88;;;-2.20
76381;BMP280;65202;52.520;10.528;2023-02-28T05:59:06;102698.31;;;-1.78
76381;BMP280;65202;52.520;10.528;2023-02-28T06:04:08;102700.97;;;-1.77
76381;BMP280;65202;52.520;10.528;2023-02-28T06:06:51;102705.25;;;-1.88
76381;BMP280;65202;52.520;10.528;2023-02-28T06:09:18;102694.53;;;-1.69
76381;BMP280;65202;52.520;10.528;2023-02-28T06:11:47;102703.22;;;-2.24
76381;BMP280;65202;52.520;10.528;2023-02-28T06:14:16;102700.38;;;-2.07
76381;BMP280;65202;52.520;10.528;2023-02-28T06:16:45;102712.66;;;-2.07
76381;BMP280;65202;52.520;10.528;2023-02-28T06:19:13;102716.22;;;-2.37
76381;BMP280;65202;52.520;10.528;2023-02-28T06:21:42;102717.72;;;-2.25
76381;BMP280;65202;52.520;10.528;2023-02-28T06:24:10;102713.03;;;-2.24
76381;BMP280;65202;52.520;10.528;2023-02-28T06:26:37;102714.22;;;-1.88
76381;BMP280;65202;52.520;10.528;2023-02-28T06:29:04;102720.81;;;-1.94
76381;BMP280;65202;52.520;10.528;2023-02-28T06:31:32;102723.09;;;-1.96
76381;BMP280;65202;52.520;10.528;2023-02-28T06:33:59;102720.06;;;-2.00
76381;BMP280;65202;52.520;10.528;2023-02-28T06:36:27;102713.59;;;-2.00
76381;BMP280;65202;52.520;10.528;2023-02-28T06:38:54;102718.69;;;-1.98
76381;BMP280;65202;52.520;10.528;2023-02-28T06:41:26;102725.81;;;-1.88
76381;BMP280;65202;52.520;10.528;2023-02-28T06:43:54;102733.91;;;-2.01
76381;BMP280;65202;52.520;10.528;2023-02-28T06:46:22;102727.03;;;-1.84
76381;BMP280;65202;52.520;10.528;2023-02-28T06:48:50;102731.69;;;-1.54
76381;BMP280;65202;52.520;10.528;2023-02-28T06:51:19;102725.59;;;-1.10
76381;BMP280;65202;52.520;10.528;2023-02-28T06:53:48;102724.19;;;-1.15
76381;BMP280;65202;52.520;10.528;2023-02-28T06:56:17;102734.22;;;-1.40
76381;BMP280;65202;52.520;10.528;2023-02-28T06:58:49;102726.53;;;-1.36
76381;BMP280;65202;52.520;10.528;2023-02-28T07:01:17;102725.94;;;-1.14
76381;BMP280;65202;52.520;10.528;2023-02-28T07:03:46;102726.50;;;-1.10
76381;BMP280;65202;52.520;10.528;2023-02-28T07:06:13;102732.63;;;-1.13
76381;BMP280;65202;52.520;10.528;2023-02-28T07:08:40;102734.44;;;-0.98
76381;BMP280;65202;52.520;10.528;2023-02-28T07:11:08;102738.16;;;-0.95
76381;BMP280;65202;52.520;10.528;2023-02-28T07:13:36;102750.59;;;-1.27
76381;BMP280;65202;52.520;10.528;2023-02-28T07:16:05;102756.88;;;-1.09
76381;BMP280;65202;52.520;10.528;2023-02-28T07:18:35;102760.09;;;-1.29
76381;BMP280;65202;52.520;10.528;2023-02-28T07:21:04;102749.56;;;-0.95
76381;BMP280;65202;52.520;10.528;2023-02-28T07:23:35;102751.31;;;-0.94
76381;BMP280;65202;52.520;10.528;2023-02-28T07:26:06;102755.44;;;-1.40
76381;BMP280;65202;52.520;10.528;2023-02-28T07:28:33;102761.56;;;-1.70
76381;BMP280;65202;52.520;10.528;2023-02-28T07:31:05;102759.56;;;-1.27
76381;BMP280;65202;52.520;10.528;2023-02-28T07:33:33;102757.97;;;-1.00
76381;BMP280;65202;52.520;10.528;2023-02-28T07:36:14;102754.88;;;-0.85
76381;BMP280;65202;52.520;10.528;2023-02-28T07:38:46;102746.53;;;-0.66
76381;BMP280;65202;52.520;10.528;2023-02-28T07:41:18;102750.41;;;-0.68
76381;BMP280;65202;52.520;10.528;2023-02-28T07:43:48;102749.72;;;-0.61
76381;BMP280;65202;52.520;10.528;2023-02-28T07:46:16;102762.88;;;0.08
76381;BMP280;65202;52.520;10.528;2023-02-28T07:48:44;102763.53;;;2.21
76381;BMP280;65202;52.520;10.528;2023-02-28T07:51:12;102749.56;;;3.67
76381;BMP280;65202;52.520;10.528;2023-02-28T07:53:39;102744.47;;;3.98
76381;BMP280;65202;52.520;10.528;2023-02-28T07:56:06;102744.09;;;4.83
76381;BMP280;65202;52.520;10.528;2023-02-28T07:58:34;102735.06;;;5.43
76381;BMP280;65202;52.520;10.528;2023-02-28T08:01:05;102748.03;;;4.90
76381;BMP280;65202;52.520;10.528;2023-02-28T08:03:33;102731.00;;;6.92
76381;BMP280;65202;52.520;10.528;2023-02-28T08:06:06;102730.28;;;6.67
76381;BMP280;65202;52.520;10.528;2023-02-28T08:08:34;102734.09;;;7.63
76381;BMP280;65202;52.520;10.528;2023-02-28T08:11:02;102734.22;;;7.65
76381;BMP280;65202;52.520;10.528;2023-02-28T08:13:30;102721.16;;;8.64
76381;BMP280;65202;52.520;10.528;2023-02-28T08:15:57;102717.28;;;8.67
76381;BMP280;65202;52.520;10.528;2023-02-28T08:18:25;102714.47;;;9.24
76381;BMP280;65202;52.520;10.528;2023-02-28T08:20:52;102718.97;;;9.28
76381;BMP280;65202;52.520;10.528;2023-02-28T08:23:19;102718.50;;;8.92
76381;BMP280;65202;52.520;10.528;2023-02-28T08:25:53;102703.06;;;9.68
76381;BMP280;65202;52.520;10.528;2023-02-28T08:28:22;102705.94;;;10.04
76381;BMP280;65202;52.520;10.528;2023-02-28T08:30:53;102707.41;;;10.45
76381;BMP280;65202;52.520;10.528;2023-02-28T08:33:21;102724.13;;;8.50
76381;BMP280;65202;52.520;10.528;2023-02-28T08:35:52;102703.16;;;9.80
76381;BMP280;65202;52.520;10.528;2023-02-28T08:38:21;102708.53;;;10.48
76381;BMP280;65202;52.520;10.528;2023-02-28T08:40:50;102706.19;;;10.61
76381;BMP280;65202;52.520;10.528;2023-02-28T08:43:28;102708.47;;;9.63
76381;BMP280;65202;52.520;10.528;2023-02-28T08:45:56;102705.25;;;10.93
76381;BMP280;65202;52.520;10.528;2023-02-28T08:48:26;102705.41;;;11.06
76381;BMP280;65202;52.520;10.528;2023-02-28T08:53:34;102707.19;;;10.42
76381;BMP280;65202;52.520;10.528;2023-02-28T08:56:05;102700.19;;;10.59
76381;BMP280;65202;52.520;10.528;2023-02-28T08:58:35;102706.03;;;10.27
76381;BMP280;65202;52.520;10.528;2023-02-28T09:01:11;102706.28;;;10.30
76381;BMP280;65202;52.520;10.528;2023-02-28T09:03:43;102703.47;;;12.06
76381;BMP280;65202;52.520;10.528;2023-02-28T09:06:13;102718.44;;;10.47
76381;BMP280;65202;52.520;10.528;2023-02-28T09:08:42;102709.75;;;10.65
76381;BMP280;65202;52.520;10.528;2023-02-28T09:11:10;102715.94;;;11.02
76381;BMP280;65202;52.520;10.528;2023-02-28T09:13:38;102716.50;;;9.90
76381;BMP280;65202;52.520;10.528;2023-02-28T09:16:09;102709.47;;;11.50
76381;BMP280;65202;52.520;10.528;2023-02-28T09:18:39;102708.63;;;10.50
76381;BMP280;65202;52.520;10.528;2023-02-28T09:21:09;102701.50;;;11.55
76381;BMP280;65202;52.520;10.528;2023-02-28T09:23:42;102705.22;;;12.07
76381;BMP280;65202;52.520;10.528;2023-02-28T09:26:27;102703.25;;;11.56
76381;BMP280;65202;52.520;10.528;2023-02-28T09:29:08;102708.13;;;11.32
76381;BMP280;65202;52.520;10.528;2023-02-28T09:31:36;102711.72;;;11.13
76381;BMP280;65202;52.520;10.528;2023-02-28T09:34:03;102695.84;;;12.29
76381;BMP280;65202;52.520;10.528;2023-02-28T09:36:31;102687.75;;;12.57
76381;BMP280;65202;52.520;10.528;2023-02-28T09:39:11;102703.88;;;12.61
76381;BMP280;65202;52.520;10.528;2023-02-28T09:41:44;102710.22;;;11.26
76381;BMP280;65202;52.520;10.528;2023-02-28T09:44:42;102701.81;;;11.60
76381;BMP280;65202;52.520;10.528;2023-02-28T09:47:26;102701.91;;;11.38
76381;BMP280;65202;52.520;10.528;2023-02-28T09:50:05;102707.78;;;11.05
76381;BMP280;65202;52.520;10.528;2023-02-28T09:52:55;102686.94;;;12.21
76381;BMP280;65202;52.520;10.528;2023-02-28T09:55:55;102694.94;;;11.57
76381;BMP280;65202;52.520;10.528;2023-02-28T09:58:42;102688.09;;;12.51
76381;BMP280;65202;52.520;10.528;2023-02-28T10:01:27;102702.06;;;11.98
76381;BMP280;65202;52.520;10.528;2023-02-28T10:04:16;102685.38;;;12.23
76381;BMP280;65202;52.520;10.528;2023-02-28T10:06:50;102686.97;;;11.63
76381;BMP280;65202;52.520;10.528;2023-02-28T10:09:20;102697.88;;;11.06
76381;BMP280;65202;52.520;10.528;2023-02-28T10:11:54;102702.94;;;10.73
76381;BMP280;65202;52.520;10.528;2023-02-28T10:14:29;102692.66;;;10.59
76381;BMP280;65202;52.520;10.528;2023-02-28T10:19:54;102701.16;;;10.07
76381;BMP280;65202;52.520;10.528;2023-02-28T10:22:38;102705.72;;;10.01
76381;BMP280;65202;52.520;10.528;2023-02-28T10:25:22;102693.91;;;10.43
76381;BMP280;65202;52.520;10.528;2023-02-28T10:28:10;102700.78;;;9.81
76381;BMP280;65202;52.520;10.528;2023-02-28T10:30:47;102709.19;;;9.31
76381;BMP280;65202;52.520;10.528;2023-02-28T10:33:43;102705.66;;;10.11
76381;BMP280;65202;52.520;10.528;2023-02-28T10:36:16;102703.69;;;9.35
76381;BMP280;65202;52.520;10.528;2023-02-28T10:38:46;102700.09;;;9.62
76381;BMP280;65202;52.520;10.528;2023-02-28T10:41:32;102709.22;;;9.62
76381;BMP280;65202;52.520;10.528;2023-02-28T10:44:22;102703.66;;;9.44
76381;BMP280;65202;52.520;10.528;2023-02-28T10:46:50;102719.28;;;8.61
76381;BMP280;65202;52.520;10.528;2023-02-28T10:49:26;102711.78;;;8.71
76381;BMP280;65202;52.520;10.528;2023-02-28T10:51:57;102713.88;;;7.99
76381;BMP280;65202;52.520;10.528;2023-02-28T10:54:31;102725.63;;;7.25
76381;BMP280;65202;52.520;10.528;2023-02-28T10:57:18;102714.63;;;6.68
76381;BMP280;65202;52.520;10.528;2023-02-28T10:59:53;102719.59;;;6.68
76381;BMP280;65202;52.520;10.528;2023-02-28T11:02:40;102708.72;;;6.22
76381;BMP280;65202;52.520;10.528;2023-02-28T11:05:40;102711.03;;;5.85
76381;BMP280;65202;52.520;10.528;2023-02-28T11:08:15;102713.69;;;5.78
76381;BMP280;65202;52.520;10.528;2023-02-28T11:10:54;102717.78;;;5.78
76381;BMP280;65202;52.520;10.528;2023-02-28T11:13:28;102701.38;;;5.88
76381;BMP280;65202;52.520;10.528;2023-02-28T11:16:04;102700.69;;;6.70
76381;BMP280;65202;52.520;10.528;2023-02-28T11:18:53;102697.13;;;6.31
76381;BMP280;65202;52.520;10.528;2023-02-28T11:21:26;102692.56;;;6.00
76381;BMP280;65202;52.520;10.528;2023-02-28T11:24:17;102704.50;;;5.35
76381;BMP280;65202;52.520;10.528;2023-02-28T11:26:51;102701.69;;;5.83
76381;BMP280;65202;52.520;10.528;2023-02-28T11:29:24;102696.28;;;6.76
76381;BMP280;65202;52.520;10.528;2023-02-28T11:34:37;102687.78;;;6.74
76381;BMP280;65202;52.520;10.528;2023-02-28T11:37:11;102682.06;;;7.30
76381;BMP280;65202;52.520;10.528;2023-02-28T11:39:44;102683.94;;;7.14
76381;BMP280;65202;52.520;10.528;2023-02-28T11:42:23;102687.28;;;7.33
76381;BMP280;65202;52.520;10.528;2023-02-28T11:45:52;102688.75;;;7.49
76381;BMP280;65202;52.520;10.528;2023-02-28T11:48:58;102681.47;;;8.09
76381;BMP280;65202;52.520;10.528;2023-02-28T11:51:52;102683.09;;;7.42
76381;BMP280;65202;52.520;10.528;2023-02-28T11:55:38;102682.16;;;6.85
76381;BMP280;65202;52.520;10.528;2023-02-28T12:01:09;102682.25;;;6.14
76381;BMP280;65202;52.520;10.528;2023-02-28T12:04:10;102684.91;;;6.16
76381;BMP280;65202;52.520;10.528;2023-02-28T12:06:55;102682.31;;;6.06
76381;BMP280;65202;52.520;10.528;2023-02-28T12:09:40;102675.28;;;6.37
76381;BMP280;65202;52.520;10.528;2023-02-28T12:12:36;102668.53;;;6.81
76381;BMP280;65202;52.520;10.528;2023-02-28T12:27:08;102641.56;;;7.60
76381;BMP280;65202;52.520;10.528;2023-02-28T12:32:39;102626.00;;;8.21
76381;BMP280;65202;52.520;10.528;2023-02-28T12:35:14;102638.34;;;8.29
76381;BMP280;65202;52.520;10.528;2023-02-28T12:37:53;102629.13;;;8.28
76381;BMP280;65202;52.520;10.528;2023-02-28T12:40:44;102625.06;;;8.11
76381;BMP280;65202;52.520;10.528;2023-02-28T12:43:15;102618.19;;;7.98
76381;BMP280;65202;52.520;10.528;2023-02-28T12:45:49;102620.81;;;7.80
76381;BMP280;65202;52.520;10.528;2023-02-28T12:48:33;102614.03;;;7.31
76381;BMP280;65202;52.520;10.528;2023-02-28T12:51:09;102604.06;;;7.69
76381;BMP280;65202;52.520;10.528;2023-02-28T12:56:48;102587.41;;;8.08
76381;BMP280;65202;52.520;10.528;2023-02-28T12:59:44;102581.28;;;7.94
76381;BMP280;65202;52.520;10.528;2023-02-28T13:02:47;102583.16;;;7.97
76381;BMP280;65202;52.520;10.528;2023-02-28T13:05:53;102574.72;;;7.56
76381;BMP280;65202;52.520;10.528;2023-02-28T13:08:48;102565.47;;;8.04
76381;BMP280;65202;52.520;10.528;2023-02-28T13:14:23;102555.00;;;8.98
76381;BMP280;65202;52.520;10.528;2023-02-28T13:17:21;102572.72;;;8.20
76381;BMP280;65202;52.520;10.528;2023-02-28T13:22:44;102559.97;;;8.67
76381;BMP280;65202;52.520;10.528;2023-02-28T13:27:50;102572.94;;;8.53
76381;BMP280;65202;52.520;10.528;2023-02-28T13:35:46;102580.63;;;7.87
76381;BMP280;65202;52.520;10.528;2023-02-28T13:38:32;102589.38;;;7.82
76381;BMP280;65202;52.520;10.528;2023-02-28T13:44:22;102580.69;;;7.49
76381;BMP280;65202;52.520;10.528;2023-02-28T13:52:12;102580.25;;;7.62
76381;BMP280;65202;52.520;10.528;2023-02-28T14:01:08;102568.13;;;7.67
76381;BMP280;65202;52.520;10.528;2023-02-28T14:03:53;102553.66;;;7.63
76381;BMP280;65202;52.520;10.528;2023-02-28T14:06:35;102567.66;;;7.61
76381;BMP280;65202;52.520;10.528;2023-02-28T14:11:37;102562.19;;;7.75
76381;BMP280;65202;52.520;10.528;2023-02-28T14:14:08;102558.25;;;8.36
76381;BMP280;65202;52.520;10.528;2023-02-28T14:16:57;102555.47;;;7.94
76381;BMP280;65202;52.520;10.528;2023-02-28T14:19:27;102555.56;;;7.75
76381;BMP280;65202;52.520;10.528;2023-02-28T14:25:10;102558.84;;;7.36
76381;BMP280;65202;52.520;10.528;2023-02-28T14:31:07;102551.69;;;7.69
76381;BMP280;65202;52.520;10.528;2023-02-28T14:33:59;102554.88;;;7.48
76381;BMP280;65202;52.520;10.528;2023-02-28T14:36:40;102554.13;;;7.39
76381;BMP280;65202;52.520;10.528;2023-02-28T14:39:16;102554.94;;;7.20
76381;BMP280;65202;52.520;10.528;2023-02-28T14:41:46;102549.25;;;7.02
76381;BMP280;65202;52.520;10.528;2023-02-28T14:44:26;102548.28;;;7.39
76381;BMP280;65202;52.520;10.528;2023-02-28T14:47:01;102545.13;;;7.31
76381;BMP280;65202;52.520;10.528;2023-02-28T14:49:37;102545.66;;;7.09
76381;BMP280;65202;52.520;10.528;2023-02-28T14:52:24;102539.22;;;7.59
76381;BMP280;65202;52.520;10.528;2023-02-28T14:54:57;102545.31;;;7.14
76381;BMP280;65202;52.520;10.528;2023-02-28T14:57:34;102546.97;;;6.67
76381;BMP280;65202;52.520;10.528;2023-02-28T15:00:14;102542.34;;;6.90
76381;BMP280;65202;52.520;10.528;2023-02-28T15:02:42;102538.69;;;7.05
76381;BMP280;65202;52.520;10.528;2023-02-28T15:05:21;102533.44;;;7.02
76381;BMP280;65202;52.520;10.528;2023-02-28T15:08:11;102541.03;;;6.75
76381;BMP280;65202;52.520;10.528;2023-02-28T15:10:43;102544.84;;;6.72
76381;BMP280;65202;52.520;10.528;2023-02-28T15:13:14;102538.47;;;6.84
76381;BMP280;65202;52.520;10.528;2023-02-28T15:15:45;102539.22;;;6.64
76381;BMP280;65202;52.520;10.528;2023-02-28T15:18:53;102534.09;;;6.63
76381;BMP280;65202;52.520;10.528;2023-02-28T15:21:29;102538.66;;;6.77
76381;BMP280;65202;52.520;10.528;2023-02-28T15:26:34;102528.25;;;6.62
76381;BMP280;65202;52.520;10.528;2023-02-28T15:29:12;102537.53;;;6.36
76381;BMP280;65202;52.520;10.528;2023-02-28T15:31:49;102526.66;;;6.44
76381;BMP280;65202;52.520;10.528;2023-02-28T15:37:46;102539.56;;;6.22
76381;BMP280;65202;52.520;10.528;2023-02-28T15:40:22;102531.66;;;6.44
76381;BMP280;65202;52.520;10.528;2023-02-28T15:45:40;102535.78;;;6.35
76381;BMP280;65202;52.520;10.528;2023-02-28T15:48:18;102536.31;;;6.23
76381;BMP280;65202;52.520;10.528;2023-02-28T15:50:53;102544.56;;;5.95
76381;BMP280;65202;52.520;10.528;2023-02-28T15:53:31;102541.38;;;5.88
76381;BMP280;65202;52.520;10.528;2023-02-28T15:56:07;102544.38;;;6.02
76381;BMP280;65202;52.520;10.528;2023-02-28T15:58:49;102543.31;;;6.09
76381;BMP280;65202;52.520;10.528;2023-02-28T16:01:33;102544.84;;;5.98
76381;BMP280;65202;52.520;10.528;2023-02-28T16:04:14;102539.44;;;5.94